sensor_id;sensor_type;location;lat;lon;timestamp;pressure;altitude;pressure_sealevel;temperature;humidity
74794;BME280;63320;50.768;6.724;2023-01-24T00:01:52;102183.56;;;3.01;74.24
74794;BME280;63320;50.768;6.724;2023-01-24T00:04:17;102174.84;;;2.99;73.75
74794;BME280;63320;50.768;6.724;2023-01-24T00:06:43;102172.28;;;3.02;73.61
74794;BME280;63320;50.768;6.724;2023-01-24T00:09:08;102174.75;;;2.93;73.94
74794;BME280;63320;50.768;6.724;2023-01-24T00:11:33;102179.56;;;2.69;75.16
74794;BME280;63320;50.768;6.724;2023-01-24T00:13:59;102182.56;;;2.93;73.93
74794;BME280;63320;50.768;6.724;2023-01-24T00:16:24;102186.09;;;2.98;74.05
74794;BME280;63320;50.768;6.724;2023-01-24T00:18:51;102190.44;;;3.01;73.77
74794;BME280;63320;50.768;6.724;2023-01-24T00:21:18;102186.72;;;2.82;74.70
74794;BME280;63320;50.768;6.724;2023-01-24T00:23:45;102179.09;;;2.93;74.39
74794;BME280;63320;50.768;6.724;2023-01-24T00:26:12;102182.31;;;2.78;75.07
74794;BME280;63320;50.768;6.724;2023-01-24T00:28:38;102185.16;;;2.93;74.48
74794;BME280;63320;50.768;6.724;2023-01-24T00:31:04;102184.94;;;2.81;74.26
74794;BME280;63320;50.768;6.724;2023-01-24T00:33:29;102191.63;;;2.64;75.07
74794;BME280;63320;50.768;6.724;2023-01-24T00:35:56;102195.31;;;2.76;75.20
74794;BME280;63320;50.768;6.724;2023-01-24T00:38:22;102189.34;;;2.83;74.76
74794;BME280;63320;50.768;6.724;2023-01-24T00:40:48;102195.34;;;2.81;75.05
74794;BME280;63320;50.768;6.724;2023-01-24T00:43:13;102197.69;;;2.64;75.49
74794;BME280;63320;50.768;6.724;2023-01-24T00:45:39;102202.88;;;2.64;75.09
74794;BME280;63320;50.768;6.724;2023-01-24T00:48:06;102197.66;;;2.61;75.59
74794;BME280;63320;50.768;6.724;2023-01-24T00:50:31;102191.16;;;2.91;74.79
74794;BME280;63320;50.768;6.724;2023-01-24T00:52:59;102193.50;;;2.72;74.80
74794;BME280;63320;50.768;6.724;2023-01-24T00:55:24;102189.03;;;2.64;75.35
74794;BME280;63320;50.768;6.724;2023-01-24T00:57:50;102194.22;;;2.64;75.73
74794;BME280;63320;50.768;6.724;2023-01-24T01:00:16;102188.38;;;2.77;75.46
74794;BME280;63320;50.768;6.724;2023-01-24T01:02:41;102192.88;;;2.90;74.43
74794;BME280;63320;50.768;6.724;2023-01-24T01:05:07;102190.28;;;2.90;74.23
74794;BME280;63320;50.768;6.724;2023-01-24T01:07:32;102201.75;;;3.03;74.35
74794;BME280;63320;50.768;6.724;2023-01-24T01:09:59;102192.16;;;3.00;73.81
74794;BME280;63320;50.768;6.724;2023-01-24T01:12:25;102190.50;;;3.04;73.45
74794;BME280;63320;50.768;6.724;2023-01-24T01:14:50;102196.72;;;3.14;73.01
74794;BME280;63320;50.768;6.724;2023-01-24T01:17:15;102197.50;;;3.09;73.51
74794;BME280;63320;50.768;6.724;2023-01-24T01:19:41;102206.09;;;3.04;73.47
74794;BME280;63320;50.768;6.724;2023-01-24T01:22:06;102203.31;;;2.92;74.64
74794;BME280;63320;50.768;6.724;2023-01-24T01:24:32;102206.41;;;2.68;74.81
74794;BME280;63320;50.768;6.724;2023-01-24T01:26:59;102203.34;;;2.93;74.70
74794;BME280;63320;50.768;6.724;2023-01-24T01:29:24;102205.94;;;2.92;74.49
74794;BME280;63320;50.768;6.724;2023-01-24T01:31:50;102205.78;;;2.82;75.07
74794;BME280;63320;50.768;6.724;2023-01-24T01:34:16;102211.00;;;2.84;75.00
74794;BME280;63320;50.768;6.724;2023-01-24T01:36:42;102211.38;;;3.08;74.31
74794;BME280;63320;50.768;6.724;2023-01-24T01:39:07;102201.69;;;2.98;74.54
74794;BME280;63320;50.768;6.724;2023-01-24T01:41:32;102208.47;;;2.90;74.17
74794;BME280;63320;50.768;6.724;2023-01-24T01:44:20;102205.09;;;2.96;74.74
74794;BME280;63320;50.768;6.724;2023-01-24T01:46:49;102206.66;;;2.84;74.58
74794;BME280;63320;50.768;6.724;2023-01-24T01:49:20;102200.75;;;2.93;74.24
74794;BME280;63320;50.768;6.724;2023-01-24T01:51:48;102202.56;;;3.00;73.90
74794;BME280;63320;50.768;6.724;2023-01-24T01:54:16;102199.88;;;2.93;74.07
74794;BME280;63320;50.768;6.724;2023-01-24T01:56:46;102203.19;;;2.84;74.36
74794;BME280;63320;50.768;6.724;2023-01-24T01:59:16;102191.31;;;3.00;74.07
74794;BME280;63320;50.768;6.724;2023-01-24T02:01:45;102195.50;;;2.90;74.16
74794;BME280;63320;50.768;6.724;2023-01-24T02:04:16;102198.88;;;2.86;74.58
74794;BME280;63320;50.768;6.724;2023-01-24T02:06:48;102202.72;;;3.09;73.80
74794;BME280;63320;50.768;6.724;2023-01-24T02:09:18;102208.63;;;3.01;74.04
74794;BME280;63320;50.768;6.724;2023-01-24T02:11:45;102214.38;;;2.80;74.93
74794;BME280;63320;50.768;6.724;2023-01-24T02:14:13;102217.81;;;2.77;74.89
74794;BME280;63320;50.768;6.724;2023-01-24T02:16:40;102215.84;;;2.61;75.73
74794;BME280;63320;50.768;6.724;2023-01-24T02:19:09;102213.47;;;2.76;75.80
74794;BME280;63320;50.768;6.724;2023-01-24T02:21:40;102218.78;;;2.82;74.96
74794;BME280;63320;50.768;6.724;2023-01-24T02:24:10;102209.97;;;2.76;75.17
74794;BME280;63320;50.768;6.724;2023-01-24T02:26:41;102219.56;;;2.77;75.60
74794;BME280;63320;50.768;6.724;2023-01-24T02:29:11;102208.59;;;2.96;74.21
74794;BME280;63320;50.768;6.724;2023-01-24T02:31:54;102207.59;;;2.90;74.23
74794;BME280;63320;50.768;6.724;2023-01-24T02:34:19;102202.53;;;2.97;74.07
74794;BME280;63320;50.768;6.724;2023-01-24T02:36:45;102205.28;;;3.08;73.95
74794;BME280;63320;50.768;6.724;2023-01-24T02:39:17;102203.47;;;3.02;73.22
74794;BME280;63320;50.768;6.724;2023-01-24T02:41:48;102202.53;;;2.97;73.43
74794;BME280;63320;50.768;6.724;2023-01-24T02:44:19;102202.72;;;3.11;73.38
74794;BME280;63320;50.768;6.724;2023-01-24T02:46:46;102198.22;;;2.99;73.64
74794;BME280;63320;50.768;6.724;2023-01-24T02:49:12;102197.16;;;2.85;73.87
74794;BME280;63320;50.768;6.724;2023-01-24T02:51:37;102205.78;;;2.84;74.10
74794;BME280;63320;50.768;6.724;2023-01-24T02:54:02;102211.69;;;2.72;75.07
74794;BME280;63320;50.768;6.724;2023-01-24T02:56:28;102207.13;;;2.60;75.21
74794;BME280;63320;50.768;6.724;2023-01-24T02:58:54;102208.22;;;2.72;75.07
74794;BME280;63320;50.768;6.724;2023-01-24T03:01:21;102204.19;;;2.92;74.19
74794;BME280;63320;50.768;6.724;2023-01-24T03:03:49;102211.00;;;2.84;74.71
74794;BME280;63320;50.768;6.724;2023-01-24T03:06:16;102212.63;;;2.79;74.87
74794;BME280;63320;50.768;6.724;2023-01-24T03:08:41;102216.13;;;2.81;74.87
74794;BME280;63320;50.768;6.724;2023-01-24T03:11:08;102205.50;;;2.66;75.69
74794;BME280;63320;50.768;6.724;2023-01-24T03:13:34;102209.16;;;2.77;75.77
74794;BME280;63320;50.768;6.724;2023-01-24T03:16:01;102202.97;;;2.70;75.05
74794;BME280;63320;50.768;6.724;2023-01-24T03:18:27;102198.78;;;2.80;75.47
74794;BME280;63320;50.768;6.724;2023-01-24T03:20:53;102194.38;;;2.73;75.39
74794;BME280;63320;50.768;6.724;2023-01-24T03:23:18;102196.16;;;2.77;75.14
74794;BME280;63320;50.768;6.724;2023-01-24T03:25:43;102187.53;;;2.78;74.33
74794;BME280;63320;50.768;6.724;2023-01-24T03:28:09;102186.50;;;2.70;74.65
74794;BME280;63320;50.768;6.724;2023-01-24T03:30:34;102198.88;;;2.86;74.63
74794;BME280;63320;50.768;6.724;2023-01-24T03:33:01;102192.09;;;2.94;73.98
74794;BME280;63320;50.768;6.724;2023-01-24T03:35:27;102197.78;;;2.70;74.86
74794;BME280;63320;50.768;6.724;2023-01-24T03:37:53;102196.16;;;2.77;74.84
74794;BME280;63320;50.768;6.724;2023-01-24T03:40:18;102199.50;;;2.68;75.43
74794;BME280;63320;50.768;6.724;2023-01-24T03:42:44;102180.50;;;2.72;74.73
74794;BME280;63320;50.768;6.724;2023-01-24T03:45:09;102189.28;;;2.80;74.56
74794;BME280;63320;50.768;6.724;2023-01-24T03:47:35;102190.81;;;2.66;74.53
74794;BME280;63320;50.768;6.724;2023-01-24T03:50:01;102183.13;;;2.75;74.36
74794;BME280;63320;50.768;6.724;2023-01-24T03:52:27;102188.31;;;2.74;74.00
74794;BME280;63320;50.768;6.724;2023-01-24T03:54:52;102183.06;;;2.71;73.64
74794;BME280;63320;50.768;6.724;2023-01-24T03:57:18;102194.47;;;2.79;73.40
74794;BME280;63320;50.768;6.724;2023-01-24T03:59:43;102192.88;;;2.89;72.95
74794;BME280;63320;50.768;6.724;2023-01-24T04:02:08;102190.94;;;2.75;73.41
74794;BME280;63320;50.768;6.724;2023-01-24T04:04:34;102188.34;;;2.75;73.13
74794;BME280;63320;50.768;6.724;2023-01-24T04:07:00;102188.50;;;2.86;73.55
74794;BME280;63320;50.768;6.724;2023-01-24T04:09:26;102183.44;;;2.95;73.29
74794;BME280;63320;50.768;6.724;2023-01-24T04:11:51;102174.56;;;2.81;73.29
74794;BME280;63320;50.768;6.724;2023-01-24T04:14:16;102177.34;;;2.92;73.28
74794;BME280;63320;50.768;6.724;2023-01-24T04:16:42;102179.91;;;2.90;72.88
74794;BME280;63320;50.768;6.724;2023-01-24T04:19:07;102190.28;;;2.90;72.84
74794;BME280;63320;50.768;6.724;2023-01-24T04:21:32;102188.47;;;2.83;73.68
74794;BME280;63320;50.768;6.724;2023-01-24T04:23:59;102192.56;;;2.67;74.01
74794;BME280;63320;50.768;6.724;2023-01-24T04:26:24;102182.31;;;2.78;74.43
74794;BME280;63320;50.768;6.724;2023-01-24T04:28:50;102194.28;;;2.68;74.34
74794;BME280;63320;50.768;6.724;2023-01-24T04:31:15;102190.03;;;2.72;74.11
74794;BME280;63320;50.768;6.724;2023-01-24T04:33:40;102188.41;;;2.80;74.49
74794;BME280;63320;50.768;6.724;2023-01-24T04:36:06;102191.47;;;2.54;74.71
74794;BME280;63320;50.768;6.724;2023-01-24T04:38:32;102191.63;;;2.64;74.12
74794;BME280;63320;50.768;6.724;2023-01-24T04:41:00;102190.03;;;2.72;73.06
74794;BME280;63320;50.768;6.724;2023-01-24T04:43:25;102190.94;;;2.75;72.99
74794;BME280;63320;50.768;6.724;2023-01-24T04:45:54;102194.38;;;2.74;72.61
74794;BME280;63320;50.768;6.724;2023-01-24T04:48:20;102188.16;;;2.65;72.84
74794;BME280;63320;50.768;6.724;2023-01-24T04:50:45;102192.16;;;2.46;74.17
74794;BME280;63320;50.768;6.724;2023-01-24T04:53:11;102190.75;;;2.65;74.09
74794;BME280;63320;50.768;6.724;2023-01-24T04:55:36;102184.78;;;2.70;73.71
74794;BME280;63320;50.768;6.724;2023-01-24T04:58:03;102193.56;;;2.77;73.26
74794;BME280;63320;50.768;6.724;2023-01-24T05:00:28;102186.56;;;2.71;72.58
74794;BME280;63320;50.768;6.724;2023-01-24T05:02:53;102191.78;;;2.76;72.27
74794;BME280;63320;50.768;6.724;2023-01-24T05:05:19;102184.94;;;2.79;72.73
74794;BME280;63320;50.768;6.724;2023-01-24T05:07:44;102186.59;;;2.76;72.19
74794;BME280;63320;50.768;6.724;2023-01-24T05:10:10;102181.47;;;2.80;72.11
74794;BME280;63320;50.768;6.724;2023-01-24T05:12:35;102183.91;;;2.70;71.87
74794;BME280;63320;50.768;6.724;2023-01-24T05:15:02;102184.94;;;2.78;71.82
74794;BME280;63320;50.768;6.724;2023-01-24T05:17:27;102190.91;;;2.74;71.93
74794;BME280;63320;50.768;6.724;2023-01-24T05:19:52;102185.84;;;2.81;71.68
74794;BME280;63320;50.768;6.724;2023-01-24T05:22:18;102185.00;;;2.82;71.94
74794;BME280;63320;50.768;6.724;2023-01-24T05:24:43;102190.25;;;2.87;71.86
74794;BME280;63320;50.768;6.724;2023-01-24T05:27:08;102188.25;;;2.71;72.14
74794;BME280;63320;50.768;6.724;2023-01-24T05:29:34;102197.78;;;2.70;72.90
74794;BME280;63320;50.768;6.724;2023-01-24T05:32:00;102198.59;;;2.66;72.76
74794;BME280;63320;50.768;6.724;2023-01-24T05:34:26;102204.69;;;2.68;72.72
74794;BME280;63320;50.768;6.724;2023-01-24T05:36:51;102194.28;;;2.67;72.44
74794;BME280;63320;50.768;6.724;2023-01-24T05:39:16;102194.59;;;2.87;71.68
74794;BME280;63320;50.768;6.724;2023-01-24T05:41:42;102195.34;;;2.81;71.41
74794;BME280;63320;50.768;6.724;2023-01-24T05:46:36;102204.78;;;2.74;72.24
74794;BME280;63320;50.768;6.724;2023-01-24T05:49:03;102207.38;;;2.74;72.80
74794;BME280;63320;50.768;6.724;2023-01-24T05:51:28;102202.94;;;2.69;72.49
74794;BME280;63320;50.768;6.724;2023-01-24T05:53:53;102201.22;;;2.68;72.68
74794;BME280;63320;50.768;6.724;2023-01-24T05:56:19;102207.88;;;2.52;73.26
74794;BME280;63320;50.768;6.724;2023-01-24T05:58:46;102206.41;;;2.68;73.14
74794;BME280;63320;50.768;6.724;2023-01-24T06:01:14;102207.81;;;2.49;72.85
74794;BME280;63320;50.768;6.724;2023-01-24T06:03:40;102209.00;;;2.68;72.55
74794;BME280;63320;50.768;6.724;2023-01-24T06:06:08;102215.06;;;2.68;72.68
74794;BME280;63320;50.768;6.724;2023-01-24T06:08:34;102211.72;;;2.75;72.43
74794;BME280;63320;50.768;6.724;2023-01-24T06:11:04;102215.31;;;2.82;71.98
74794;BME280;63320;50.768;6.724;2023-01-24T06:13:30;102212.31;;;2.59;71.64
74794;BME280;63320;50.768;6.724;2023-01-24T06:16:00;102216.09;;;2.78;71.92
74794;BME280;63320;50.768;6.724;2023-01-24T06:18:26;102216.94;;;2.77;71.65
74794;BME280;63320;50.768;6.724;2023-01-24T06:20:51;102222.69;;;2.57;72.76
74794;BME280;63320;50.768;6.724;2023-01-24T06:23:23;102217.44;;;2.56;72.11
74794;BME280;63320;50.768;6.724;2023-01-24T06:25:49;102228.81;;;2.61;71.86
74794;BME280;63320;50.768;6.724;2023-01-24T06:28:15;102235.25;;;2.86;71.42
74794;BME280;63320;50.768;6.724;2023-01-24T06:30:42;102228.06;;;2.70;71.61
74794;BME280;63320;50.768;6.724;2023-01-24T06:33:23;102230.59;;;2.65;72.15
74794;BME280;63320;50.768;6.724;2023-01-24T06:36:07;102245.38;;;2.69;72.30
74794;BME280;63320;50.768;6.724;2023-01-24T06:38:37;102240.28;;;2.74;72.10
74794;BME280;63320;50.768;6.724;2023-01-24T06:41:03;102246.94;;;2.58;71.88
74794;BME280;63320;50.768;6.724;2023-01-24T06:43:34;102247.97;;;2.68;72.62
74794;BME280;63320;50.768;6.724;2023-01-24T06:46:00;102254.00;;;2.67;72.75
74794;BME280;63320;50.768;6.724;2023-01-24T06:48:25;102251.50;;;2.71;72.72
74794;BME280;63320;50.768;6.724;2023-01-24T06:50:50;102249.59;;;2.63;72.45
74794;BME280;63320;50.768;6.724;2023-01-24T06:53:16;102257.41;;;2.63;72.67
74794;BME280;63320;50.768;6.724;2023-01-24T06:55:45;102251.34;;;2.64;72.25
74794;BME280;63320;50.768;6.724;2023-01-24T06:58:10;102259.34;;;2.76;72.35
74794;BME280;63320;50.768;6.724;2023-01-24T07:00:36;102251.53;;;2.74;72.45
74794;BME280;63320;50.768;6.724;2023-01-24T07:03:03;102257.44;;;2.66;72.54
74794;BME280;63320;50.768;6.724;2023-01-24T07:05:28;102257.59;;;2.75;72.52
74794;BME280;63320;50.768;6.724;2023-01-24T07:07:54;102265.22;;;2.64;72.26
74794;BME280;63320;50.768;6.724;2023-01-24T07:10:20;102260.94;;;2.68;72.79
74794;BME280;63320;50.768;6.724;2023-01-24T07:12:47;102265.28;;;2.67;72.38
74794;BME280;63320;50.768;6.724;2023-01-24T07:15:12;102276.47;;;2.65;72.75
74794;BME280;63320;50.768;6.724;2023-01-24T07:17:38;102278.34;;;2.72;72.35
74794;BME280;63320;50.768;6.724;2023-01-24T07:20:04;102285.03;;;2.59;73.14
74794;BME280;63320;50.768;6.724;2023-01-24T07:22:31;102283.41;;;2.66;73.03
74794;BME280;63320;50.768;6.724;2023-01-24T07:24:57;102289.50;;;2.66;73.02
74794;BME280;63320;50.768;6.724;2023-01-24T07:27:23;102287.88;;;2.73;72.67
74794;BME280;63320;50.768;6.724;2023-01-24T07:29:49;102283.38;;;2.63;73.01
74794;BME280;63320;50.768;6.724;2023-01-24T07:32:15;102283.38;;;2.63;73.48
74794;BME280;63320;50.768;6.724;2023-01-24T07:34:40;102298.84;;;2.56;72.56
74794;BME280;63320;50.768;6.724;2023-01-24T07:37:06;102295.56;;;2.67;72.75
74794;BME280;63320;50.768;6.724;2023-01-24T07:39:31;102295.00;;;2.84;71.93
74794;BME280;63320;50.768;6.724;2023-01-24T07:41:56;102296.75;;;2.85;71.34
74794;BME280;63320;50.768;6.724;2023-01-24T07:44:21;102301.84;;;2.79;71.47
74794;BME280;63320;50.768;6.724;2023-01-24T07:46:48;102300.88;;;2.73;71.55
74794;BME280;63320;50.768;6.724;2023-01-24T07:49:14;102294.13;;;2.85;71.67
74794;BME280;63320;50.768;6.724;2023-01-24T07:51:39;102305.38;;;2.83;71.69
74794;BME280;63320;50.768;6.724;2023-01-24T07:54:04;102317.41;;;2.79;72.01
74794;BME280;63320;50.768;6.724;2023-01-24T07:56:30;102315.59;;;2.74;71.71
74794;BME280;63320;50.768;6.724;2023-01-24T07:58:56;102316.94;;;2.52;72.31
74794;BME280;63320;50.768;6.724;2023-01-24T08:01:23;102312.78;;;2.62;72.49
74794;BME280;63320;50.768;6.724;2023-01-24T08:03:50;102316.47;;;2.76;72.41
74794;BME280;63320;50.768;6.724;2023-01-24T08:06:18;102319.03;;;2.71;72.09
74794;BME280;63320;50.768;6.724;2023-01-24T08:08:43;102324.41;;;2.82;71.96
74794;BME280;63320;50.768;6.724;2023-01-24T08:11:08;102312.03;;;2.67;72.30
74794;BME280;63320;50.768;6.724;2023-01-24T08:13:34;102319.94;;;2.75;72.02
74794;BME280;63320;50.768;6.724;2023-01-24T08:15:59;102327.66;;;2.70;72.53
74794;BME280;63320;50.768;6.724;2023-01-24T08:18:24;102330.38;;;2.76;72.09
74794;BME280;63320;50.768;6.724;2023-01-24T08:20:54;102328.59;;;2.74;72.28
74794;BME280;63320;50.768;6.724;2023-01-24T08:23:20;102331.34;;;2.81;71.66
74794;BME280;63320;50.768;6.724;2023-01-24T08:25:45;102339.06;;;2.80;71.53
74794;BME280;63320;50.768;6.724;2023-01-24T08:28:10;102337.53;;;2.91;71.49
74794;BME280;63320;50.768;6.724;2023-01-24T08:30:36;102337.50;;;2.88;71.60
74794;BME280;63320;50.768;6.724;2023-01-24T08:33:02;102341.84;;;2.89;71.36
74794;BME280;63320;50.768;6.724;2023-01-24T08:35:28;102343.09;;;2.63;72.45
74794;BME280;63320;50.768;6.724;2023-01-24T08:37:55;102339.06;;;2.80;72.24
74794;BME280;63320;50.768;6.724;2023-01-24T08:40:20;102335.50;;;2.72;72.21
74794;BME280;63320;50.768;6.724;2023-01-24T08:42:45;102340.88;;;2.82;72.12
74794;BME280;63320;50.768;6.724;2023-01-24T08:45:11;102346.69;;;2.71;71.99
74794;BME280;63320;50.768;6.724;2023-01-24T08:47:36;102348.63;;;2.81;72.23
74794;BME280;63320;50.768;6.724;2023-01-24T08:50:01;102340.97;;;2.87;71.55
74794;BME280;63320;50.768;6.724;2023-01-24T08:52:27;102342.00;;;2.98;71.71
74794;BME280;63320;50.768;6.724;2023-01-24T08:54:53;102346.94;;;2.83;71.14
74794;BME280;63320;50.768;6.724;2023-01-24T08:57:19;102346.66;;;2.66;72.96
74794;BME280;63320;50.768;6.724;2023-01-24T08:59:44;102350.25;;;2.76;72.34
74794;BME280;63320;50.768;6.724;2023-01-24T09:02:12;102349.56;;;2.84;71.97
74794;BME280;63320;50.768;6.724;2023-01-24T09:04:38;102354.06;;;2.93;71.50
74794;BME280;63320;50.768;6.724;2023-01-24T09:07:03;102356.38;;;2.79;72.41
74794;BME280;63320;50.768;6.724;2023-01-24T09:09:28;102357.06;;;2.69;72.01
74794;BME280;63320;50.768;6.724;2023-01-24T09:11:55;102361.59;;;2.81;71.66
74794;BME280;63320;50.768;6.724;2023-01-24T09:14:20;102368.78;;;2.94;71.49
74794;BME280;63320;50.768;6.724;2023-01-24T09:16:46;102367.94;;;2.95;71.44
74794;BME280;63320;50.768;6.724;2023-01-24T09:19:11;102365.31;;;2.95;71.43
74794;BME280;63320;50.768;6.724;2023-01-24T09:21:37;102360.41;;;3.10;71.27
74794;BME280;63320;50.768;6.724;2023-01-24T09:24:02;102362.97;;;3.07;70.83
74794;BME280;63320;50.768;6.724;2023-01-24T09:26:28;102365.56;;;3.09;70.95
74794;BME280;63320;50.768;6.724;2023-01-24T09:28:55;102365.59;;;3.10;70.97
74794;BME280;63320;50.768;6.724;2023-01-24T09:31:20;102370.53;;;2.95;71.57
74794;BME280;63320;50.768;6.724;2023-01-24T09:33:45;102368.88;;;3.00;71.65
74794;BME280;63320;50.768;6.724;2023-01-24T09:36:11;102372.66;;;3.18;70.83
74794;BME280;63320;50.768;6.724;2023-01-24T09:38:36;102369.06;;;3.11;70.34
74794;BME280;63320;50.768;6.724;2023-01-24T09:41:08;102367.38;;;3.11;71.11
74794;BME280;63320;50.768;6.724;2023-01-24T09:43:43;102366.28;;;2.99;71.27
74794;BME280;63320;50.768;6.724;2023-01-24T09:46:18;102369.47;;;2.85;71.06
74794;BME280;63320;50.768;6.724;2023-01-24T09:48:47;102362.81;;;3.00;70.88
74794;BME280;63320;50.768;6.724;2023-01-24T09:51:17;102373.34;;;3.07;70.39
74794;BME280;63320;50.768;6.724;2023-01-24T09:53:44;102379.34;;;3.03;70.43
74794;BME280;63320;50.768;6.724;2023-01-24T09:56:18;102377.53;;;2.99;70.99
74794;BME280;63320;50.768;6.724;2023-01-24T09:58:44;102380.13;;;2.98;71.17
74794;BME280;63320;50.768;6.724;2023-01-24T10:01:14;102379.06;;;2.88;70.71
74794;BME280;63320;50.768;6.724;2023-01-24T10:03:40;102382.72;;;2.99;71.08
74794;BME280;63320;50.768;6.724;2023-01-24T10:06:12;102384.75;;;3.16;70.55
74794;BME280;63320;50.768;6.724;2023-01-24T10:08:44;102378.66;;;3.15;71.06
74794;BME280;63320;50.768;6.724;2023-01-24T10:11:25;102379.50;;;3.13;71.07
74794;BME280;63320;50.768;6.724;2023-01-24T10:14:08;102375.13;;;3.10;71.67
74794;BME280;63320;50.768;6.724;2023-01-24T10:16:53;102377.88;;;3.18;71.42
74794;BME280;63320;50.768;6.724;2023-01-24T10:19:32;102378.63;;;3.12;71.06
74794;BME280;63320;50.768;6.724;2023-01-24T10:22:13;102382.19;;;3.17;71.17
74794;BME280;63320;50.768;6.724;2023-01-24T10:24:50;102387.31;;;3.14;71.22
74794;BME280;63320;50.768;6.724;2023-01-24T10:27:26;102393.53;;;3.22;70.60
74794;BME280;63320;50.768;6.724;2023-01-24T10:29:57;102389.84;;;3.09;70.35
74794;BME280;63320;50.768;6.724;2023-01-24T10:32:30;102398.75;;;3.24;70.43
74794;BME280;63320;50.768;6.724;2023-01-24T10:34:58;102391.75;;;3.20;70.33
74794;BME280;63320;50.768;6.724;2023-01-24T10:37:25;102385.47;;;3.07;70.61
74794;BME280;63320;50.768;6.724;2023-01-24T10:39:52;102382.81;;;3.02;70.39
74794;BME280;63320;50.768;6.724;2023-01-24T10:42:22;102376.94;;;3.16;70.57
74794;BME280;63320;50.768;6.724;2023-01-24T10:44:48;102369.31;;;3.25;70.07
74794;BME280;63320;50.768;6.724;2023-01-24T10:47:26;102372.69;;;3.19;71.00
74794;BME280;63320;50.768;6.724;2023-01-24T10:50:01;102377.81;;;3.15;70.21
74794;BME280;63320;50.768;6.724;2023-01-24T10:52:27;102375.22;;;3.16;70.34
74794;BME280;63320;50.768;6.724;2023-01-24T10:54:54;102370.84;;;3.14;70.50
74794;BME280;63320;50.768;6.724;2023-01-24T10:57:29;102366.00;;;3.33;70.48
74794;BME280;63320;50.768;6.724;2023-01-24T10:59:56;102374.47;;;3.22;71.00
74794;BME280;63320;50.768;6.724;2023-01-24T11:02:25;102362.50;;;3.31;70.67
74794;BME280;63320;50.768;6.724;2023-01-24T11:04:58;102363.16;;;3.21;70.43
74794;BME280;63320;50.768;6.724;2023-01-24T11:07:31;102359.75;;;3.24;70.46
74794;BME280;63320;50.768;6.724;2023-01-24T11:10:00;102357.97;;;3.21;70.04
74794;BME280;63320;50.768;6.724;2023-01-24T11:12:25;102361.16;;;3.03;69.81
74794;BME280;63320;50.768;6.724;2023-01-24T11:14:51;102366.63;;;3.20;70.74
74794;BME280;63320;50.768;6.724;2023-01-24T11:17:31;102358.50;;;3.00;71.11
74794;BME280;63320;50.768;6.724;2023-01-24T11:19:58;102363.13;;;3.18;71.31
74794;BME280;63320;50.768;6.724;2023-01-24T11:22:27;102364.78;;;3.11;72.21
74794;BME280;63320;50.768;6.724;2023-01-24T11:24:58;102361.59;;;3.29;71.27
74794;BME280;63320;50.768;6.724;2023-01-24T11:27:24;102346.84;;;3.30;71.67
74794;BME280;63320;50.768;6.724;2023-01-24T11:30:05;102358.06;;;3.26;70.97
74794;BME280;63320;50.768;6.724;2023-01-24T11:32:36;102355.59;;;2.83;71.49
74794;BME280;63320;50.768;6.724;2023-01-24T11:35:10;102348.34;;;3.14;71.83
74794;BME280;63320;50.768;6.724;2023-01-24T11:40:33;102350.41;;;3.35;71.14
74794;BME280;63320;50.768;6.724;2023-01-24T11:43:12;102344.41;;;3.41;70.31
74794;BME280;63320;50.768;6.724;2023-01-24T11:46:05;102347.72;;;3.29;70.79
74794;BME280;63320;50.768;6.724;2023-01-24T11:48:40;102340.63;;;3.20;70.93
74794;BME280;63320;50.768;6.724;2023-01-24T11:51:09;102339.16;;;3.36;70.82
74794;BME280;63320;50.768;6.724;2023-01-24T11:53:54;102336.53;;;3.34;70.00
74794;BME280;63320;50.768;6.724;2023-01-24T11:56:33;102338.41;;;3.43;70.12
74794;BME280;63320;50.768;6.724;2023-01-24T12:01:54;102335.56;;;3.26;70.18
74794;BME280;63320;50.768;6.724;2023-01-24T12:04:44;102327.84;;;3.34;70.91
74794;BME280;63320;50.768;6.724;2023-01-24T12:07:22;102326.91;;;3.29;70.91
74794;BME280;63320;50.768;6.724;2023-01-24T12:09:57;102322.97;;;3.01;71.21
74794;BME280;63320;50.768;6.724;2023-01-24T12:12:29;102328.50;;;3.21;71.61
74794;BME280;63320;50.768;6.724;2023-01-24T12:15:31;102330.19;;;3.17;71.11
74794;BME280;63320;50.768;6.724;2023-01-24T12:18:23;102325.09;;;3.25;70.45
74794;BME280;63320;50.768;6.724;2023-01-24T12:20:59;102318.25;;;3.28;69.89
74794;BME280;63320;50.768;6.724;2023-01-24T12:23:28;102314.16;;;3.46;70.11
74794;BME280;63320;50.768;6.724;2023-01-24T12:26:01;102321.00;;;3.39;69.95
74794;BME280;63320;50.768;6.724;2023-01-24T12:28:34;102308.78;;;3.32;70.47
74794;BME280;63320;50.768;6.724;2023-01-24T12:31:03;102303.81;;;3.47;69.64
74794;BME280;63320;50.768;6.724;2023-01-24T12:33:33;102302.81;;;3.41;69.61
74794;BME280;63320;50.768;6.724;2023-01-24T12:36:01;102295.81;;;3.35;70.21
74794;BME280;63320;50.768;6.724;2023-01-24T12:38:34;102296.00;;;3.49;70.51
74794;BME280;63320;50.768;6.724;2023-01-24T12:41:06;102294.34;;;3.55;70.25
74794;BME280;63320;50.768;6.724;2023-01-24T12:43:43;102297.75;;;3.48;70.64
74794;BME280;63320;50.768;6.724;2023-01-24T12:46:15;102290.06;;;3.57;70.33
74794;BME280;63320;50.768;6.724;2023-01-24T12:48:46;102297.59;;;3.39;70.80
74794;BME280;63320;50.768;6.724;2023-01-24T12:51:17;102294.06;;;3.35;70.96
74794;BME280;63320;50.768;6.724;2023-01-24T12:53:54;102291.44;;;3.32;70.49
74794;BME280;63320;50.768;6.724;2023-01-24T12:56:24;102285.41;;;3.35;70.90
74794;BME280;63320;50.768;6.724;2023-01-24T12:58:53;102295.63;;;3.24;70.44
74794;BME280;63320;50.768;6.724;2023-01-24T13:01:41;102288.13;;;3.43;70.60
74794;BME280;63320;50.768;6.724;2023-01-24T13:04:18;102284.44;;;3.28;70.52
74794;BME280;63320;50.768;6.724;2023-01-24T13:06:55;102294.06;;;3.34;69.96
74794;BME280;63320;50.768;6.724;2023-01-24T13:09:27;102283.56;;;3.26;69.95
74794;BME280;63320;50.768;6.724;2023-01-24T13:11:55;102280.28;;;3.41;70.37
74794;BME280;63320;50.768;6.724;2023-01-24T13:14:27;102280.19;;;3.35;70.27